createdAt,value
2019-03-28T00:01:03.804Z,12.78
2019-03-28T00:03:33.912Z,10.15
2019-03-28T00:06:04.053Z,11.75
2019-03-28T00:08:34.193Z,11.48
2019-03-28T00:11:04.420Z,11.65
2019-03-28T00:13:36.569Z,13.30
2019-03-28T00:16:06.711Z,10.60
2019-03-28T00:18:36.847Z,12.25
2019-03-28T00:21:07.002Z,10.70
2019-03-28T00:23:38.783Z,13.85
2019-03-28T00:26:08.849Z,13.95
2019-03-28T00:28:38.832Z,13.13
2019-03-28T00:31:09.466Z,15.78
2019-03-28T00:33:39.555Z,10.63
2019-03-28T00:36:09.704Z,9.73
2019-03-28T00:38:39.926Z,14.20
2019-03-28T00:41:10.096Z,10.48
2019-03-28T00:43:40.200Z,12.05
2019-03-28T00:46:10.324Z,11.95
2019-03-28T00:48:40.330Z,11.18
2019-03-28T00:51:10.614Z,14.53
2019-03-28T00:53:40.628Z,10.82
2019-03-28T00:56:10.765Z,11.97
2019-03-28T00:58:40.985Z,11.95
2019-03-28T01:01:11.207Z,15.23
2019-03-28T01:03:41.415Z,11.45
2019-03-28T01:06:11.702Z,13.53
2019-03-28T01:08:41.887Z,15.03
2019-03-28T01:11:12.169Z,11.93
2019-03-28T01:13:43.201Z,13.55
2019-03-28T01:16:13.767Z,14.33
2019-03-28T01:18:45.120Z,13.32
2019-03-28T01:21:16.261Z,12.40
2019-03-28T01:23:46.570Z,15.05
2019-03-28T01:26:16.723Z,14.03
2019-03-28T01:28:46.930Z,12.00
2019-03-28T01:31:17.072Z,17.27
2019-03-28T01:33:47.067Z,15.08
2019-03-28T01:36:17.212Z,13.22
2019-03-28T01:38:47.338Z,12.37
2019-03-28T01:41:17.497Z,12.05
2019-03-28T01:43:47.666Z,14.35
2019-03-28T01:46:17.686Z,13.25
2019-03-28T01:48:47.785Z,12.68
2019-03-28T01:51:20.093Z,15.93
2019-03-28T01:53:50.223Z,11.15
2019-03-28T01:56:20.313Z,14.18
2019-03-28T01:58:50.390Z,12.90
2019-03-28T02:01:20.541Z,14.10
2019-03-28T02:03:50.624Z,14.05
2019-03-28T02:06:20.692Z,12.68
2019-03-28T02:08:50.839Z,11.12
2019-03-28T02:11:20.989Z,15.45
2019-03-28T02:13:51.143Z,15.78
2019-03-28T02:16:21.504Z,14.55
2019-03-28T02:18:51.853Z,14.73
2019-03-28T02:21:22.001Z,17.30
2019-03-28T02:23:52.298Z,16.17
2019-03-28T02:26:22.365Z,13.68
2019-03-28T02:28:52.611Z,15.63
2019-03-28T02:31:22.825Z,12.90
2019-03-28T02:33:53.049Z,14.53
2019-03-28T02:36:24.198Z,15.48
2019-03-28T02:38:54.427Z,13.30
2019-03-28T02:41:25.535Z,13.55
2019-03-28T02:43:55.625Z,14.98
2019-03-28T02:46:25.853Z,11.50
2019-03-28T02:48:56.023Z,14.58
2019-03-28T02:51:26.162Z,14.87
2019-03-28T02:53:56.380Z,17.15
2019-03-28T02:56:26.533Z,14.07
2019-03-28T02:58:56.744Z,11.33
2019-03-28T03:01:30.101Z,15.83
2019-03-28T03:03:58.800Z,14.70
2019-03-28T03:06:28.948Z,10.30
2019-03-28T03:08:59.627Z,13.68
2019-03-28T03:11:29.841Z,13.75
2019-03-28T03:13:59.984Z,14.05
2019-03-28T03:16:30.198Z,13.25
2019-03-28T03:19:00.289Z,12.25
2019-03-28T03:21:30.588Z,15.08
2019-03-28T03:24:00.655Z,14.85
2019-03-28T03:26:30.755Z,11.38
2019-03-28T03:29:00.973Z,13.38
2019-03-28T03:31:31.192Z,13.25
2019-03-28T03:34:01.349Z,14.45
2019-03-28T03:36:31.502Z,14.73
2019-03-28T03:39:01.638Z,15.18
2019-03-28T03:41:32.224Z,15.53
2019-03-28T03:44:02.305Z,12.23
2019-03-28T03:46:32.509Z,13.00
2019-03-28T03:49:02.670Z,15.20
2019-03-28T03:51:32.819Z,12.30
2019-03-28T03:54:03.010Z,12.85
2019-03-28T03:56:33.151Z,10.40
2019-03-28T03:59:03.377Z,13.40
2019-03-28T04:01:33.464Z,12.28
2019-03-28T04:04:03.607Z,15.55
2019-03-28T04:06:33.618Z,10.40
2019-03-28T04:09:05.384Z,12.90
2019-03-28T04:11:35.672Z,11.95
2019-03-28T04:14:05.885Z,14.47
2019-03-28T04:16:36.137Z,11.22
2019-03-28T04:19:06.360Z,12.18
2019-03-28T04:21:36.367Z,13.28
2019-03-28T04:24:06.591Z,12.00
2019-03-28T04:26:36.674Z,10.75
2019-03-28T04:29:06.823Z,12.35
2019-03-28T04:31:36.967Z,14.85
2019-03-28T04:34:08.744Z,12.60
2019-03-28T04:36:38.814Z,16.40
2019-03-28T04:39:09.061Z,11.57
2019-03-28T04:41:39.336Z,14.50
2019-03-28T04:44:09.549Z,11.25
2019-03-28T04:46:39.707Z,15.05
2019-03-28T04:49:09.798Z,15.88
2019-03-28T04:51:39.932Z,12.30
2019-03-28T04:54:10.048Z,13.08
2019-03-28T04:56:40.158Z,12.43
2019-03-28T04:59:10.300Z,11.60
2019-03-28T05:01:40.439Z,15.05
2019-03-28T05:04:10.666Z,13.18
2019-03-28T05:06:40.877Z,14.63
2019-03-28T05:09:10.953Z,12.58
2019-03-28T05:11:41.022Z,16.20
2019-03-28T05:14:11.380Z,12.58
2019-03-28T05:16:41.708Z,12.82
2019-03-28T05:19:11.805Z,18.77
2019-03-28T05:21:41.819Z,12.20
2019-03-28T05:24:11.892Z,15.00
2019-03-28T05:26:41.996Z,12.68
2019-03-28T05:29:12.047Z,14.93
2019-03-28T05:31:42.133Z,19.87
2019-03-28T05:34:12.258Z,15.08
2019-03-28T05:36:42.485Z,16.07
2019-03-28T05:39:12.616Z,17.98
2019-03-28T05:41:42.787Z,11.78
2019-03-28T05:44:12.941Z,16.27
2019-03-28T05:46:43.072Z,13.83
2019-03-28T05:49:13.232Z,14.83
2019-03-28T05:51:43.369Z,15.58
2019-03-28T05:54:13.597Z,15.40
2019-03-28T05:56:43.660Z,15.83
2019-03-28T05:59:13.721Z,14.28
2019-03-28T06:01:43.780Z,17.02
2019-03-28T06:04:14.001Z,13.65
2019-03-28T06:06:44.311Z,15.80
2019-03-28T06:09:14.820Z,13.10
2019-03-28T06:11:44.815Z,12.00
2019-03-28T06:14:15.100Z,16.90
2019-03-28T06:16:45.303Z,18.82
2019-03-28T06:19:15.386Z,20.50
2019-03-28T06:21:45.464Z,14.60
2019-03-28T06:24:15.533Z,12.15
2019-03-28T06:26:45.688Z,19.07
2019-03-28T06:29:23.656Z,17.45
2019-03-28T06:31:55.186Z,13.80
2019-03-28T06:34:19.303Z,16.07
2019-03-28T06:36:49.393Z,11.30
2019-03-28T06:39:19.523Z,13.70
2019-03-28T06:41:49.674Z,12.98
2019-03-28T06:44:20.890Z,12.47
2019-03-28T06:46:51.070Z,11.60
2019-03-28T06:49:21.195Z,13.75
2019-03-28T06:51:51.229Z,13.48
2019-03-28T06:54:24.094Z,12.37
2019-03-28T06:56:53.050Z,14.53
2019-03-28T06:59:36.290Z,19.20
2019-03-28T07:01:55.353Z,16.15
2019-03-28T07:04:25.433Z,11.80
2019-03-28T07:06:55.857Z,14.05
2019-03-28T07:09:26.080Z,12.25
2019-03-28T07:11:56.377Z,15.00
2019-03-28T07:14:29.487Z,12.75
2019-03-28T07:16:58.814Z,17.05
2019-03-28T07:19:28.969Z,17.12
2019-03-28T07:21:59.054Z,11.25
2019-03-28T07:24:29.173Z,10.93
2019-03-28T07:26:59.184Z,8.88
2019-03-28T07:29:29.266Z,12.93
2019-03-28T07:31:59.427Z,9.73
2019-03-28T07:34:29.459Z,10.05
2019-03-28T07:36:59.745Z,9.60
2019-03-28T07:39:29.755Z,9.15
2019-03-28T07:41:59.909Z,13.20
2019-03-28T07:44:30.047Z,8.08
2019-03-28T07:47:00.117Z,9.83
2019-03-28T07:49:30.273Z,10.78
2019-03-28T07:52:01.438Z,10.75
2019-03-28T07:54:31.754Z,11.70
2019-03-28T07:57:01.932Z,11.50
2019-03-28T07:59:32.066Z,11.28
2019-03-28T08:02:02.241Z,9.18
2019-03-28T08:04:32.368Z,7.67
2019-03-28T08:07:02.621Z,7.87
2019-03-28T08:09:36.873Z,10.28
2019-03-28T08:12:04.898Z,9.20
2019-03-28T08:14:35.346Z,8.63
2019-03-28T08:17:06.649Z,9.05
2019-03-28T08:19:37.965Z,9.33
2019-03-28T08:22:08.441Z,10.82
2019-03-28T08:24:38.713Z,10.90
2019-03-28T08:27:09.027Z,10.10
2019-03-28T08:29:39.119Z,8.35
2019-03-28T08:32:13.447Z,7.53
2019-03-28T08:34:42.668Z,14.07
2019-03-28T08:37:12.753Z,10.68
2019-03-28T08:39:44.658Z,11.12
2019-03-28T08:42:14.919Z,10.18
2019-03-28T08:44:44.941Z,7.35
2019-03-28T08:47:15.089Z,7.80
2019-03-28T08:49:45.248Z,8.30
2019-03-28T08:52:15.492Z,9.60
2019-03-28T08:54:45.539Z,8.33
2019-03-28T08:57:15.821Z,8.68
2019-03-28T08:59:45.978Z,9.08
2019-03-28T09:02:16.056Z,9.73
2019-03-28T09:04:46.214Z,9.90
2019-03-28T09:07:17.494Z,8.58
2019-03-28T09:09:47.885Z,5.90
2019-03-28T09:12:18.100Z,11.30
2019-03-28T09:14:48.314Z,10.80
2019-03-28T09:17:18.402Z,7.12
2019-03-28T09:19:49.376Z,9.08
2019-03-28T09:22:19.587Z,11.38
2019-03-28T09:24:49.724Z,7.60
2019-03-28T09:27:19.993Z,9.35
2019-03-28T09:29:50.337Z,8.75
2019-03-28T09:32:20.467Z,8.83
2019-03-28T09:34:51.062Z,9.90
2019-03-28T09:37:21.272Z,9.18
2019-03-28T09:39:51.440Z,8.00
2019-03-28T09:42:21.564Z,8.15
2019-03-28T09:44:51.638Z,8.63
2019-03-28T09:47:21.695Z,8.73
2019-03-28T09:49:51.848Z,10.45
2019-03-28T09:52:21.953Z,8.10
2019-03-28T09:54:52.108Z,11.18
2019-03-28T09:57:22.339Z,12.05
2019-03-28T09:59:52.489Z,7.87
2019-03-28T10:02:22.649Z,10.28
2019-03-28T10:04:52.809Z,10.88
2019-03-28T10:07:23.044Z,9.68
2019-03-28T10:09:53.536Z,9.58
2019-03-28T10:12:23.682Z,12.93
2019-03-28T10:14:53.840Z,10.78
2019-03-28T10:17:23.849Z,11.80
2019-03-28T10:19:54.139Z,11.05
2019-03-28T10:22:24.440Z,13.25
2019-03-28T10:24:54.597Z,12.13
2019-03-28T10:27:24.739Z,9.83
2019-03-28T10:29:54.891Z,10.25
2019-03-28T10:32:25.091Z,13.53
2019-03-28T10:34:55.233Z,10.78
2019-03-28T10:37:25.455Z,9.60
2019-03-28T10:39:55.619Z,12.47
2019-03-28T10:42:25.761Z,10.88
2019-03-28T10:44:55.921Z,12.82
2019-03-28T10:47:27.298Z,9.83
2019-03-28T10:49:57.598Z,11.18
2019-03-28T10:52:27.750Z,11.33
2019-03-28T10:54:57.971Z,11.68
2019-03-28T10:57:30.307Z,9.35
2019-03-28T10:59:59.893Z,9.23
2019-03-28T11:02:30.112Z,10.78
2019-03-28T11:05:00.410Z,10.32
2019-03-28T11:07:30.445Z,11.12
2019-03-28T11:10:01.718Z,8.85
2019-03-28T11:12:31.866Z,9.18
2019-03-28T11:15:02.124Z,11.05
2019-03-28T11:17:32.358Z,10.58
2019-03-28T11:20:02.504Z,11.83
2019-03-28T11:22:32.601Z,9.10
2019-03-28T11:25:02.680Z,10.32
2019-03-28T11:27:32.899Z,12.18
2019-03-28T11:30:03.226Z,10.70
2019-03-28T11:32:35.922Z,13.58
2019-03-28T11:35:07.298Z,10.53
2019-03-28T11:37:37.833Z,10.38
2019-03-28T11:40:09.412Z,11.53
2019-03-28T11:42:40.907Z,10.68
2019-03-28T11:45:12.511Z,8.60
2019-03-28T11:47:42.692Z,12.73
2019-03-28T11:50:13.412Z,10.90
2019-03-28T11:52:43.595Z,12.47
2019-03-28T11:55:13.998Z,11.63
2019-03-28T11:57:45.907Z,11.28
2019-03-28T12:00:18.143Z,12.80
2019-03-28T12:02:48.351Z,11.03
2019-03-28T12:05:18.426Z,10.43
2019-03-28T12:07:48.583Z,11.57
2019-03-28T12:10:18.739Z,10.70
2019-03-28T12:12:48.830Z,11.10
2019-03-28T12:15:18.985Z,9.23
2019-03-28T12:17:49.057Z,10.82
2019-03-28T12:20:19.144Z,11.08
2019-03-28T12:22:49.225Z,13.93
2019-03-28T12:25:19.335Z,11.93
2019-03-28T12:27:49.480Z,10.23
2019-03-28T12:30:19.944Z,11.40
2019-03-28T12:32:50.096Z,11.05
2019-03-28T12:35:20.379Z,9.65
2019-03-28T12:37:50.543Z,11.80
2019-03-28T12:40:20.759Z,13.48
2019-03-28T12:42:50.918Z,13.83
2019-03-28T12:45:21.078Z,10.25
2019-03-28T12:47:51.262Z,11.57
2019-03-28T12:50:21.405Z,11.78
2019-03-28T12:52:51.501Z,12.35
2019-03-28T12:55:21.723Z,12.75
2019-03-28T12:57:51.806Z,10.05
2019-03-28T13:00:30.505Z,10.78
2019-03-28T13:03:00.594Z,9.33
2019-03-28T13:05:30.829Z,11.25
2019-03-28T13:08:01.041Z,13.10
2019-03-28T13:10:31.200Z,9.30
2019-03-28T13:13:01.405Z,13.45
2019-03-28T13:15:31.638Z,13.00
2019-03-28T13:18:01.720Z,11.45
2019-03-28T13:20:31.873Z,8.65
2019-03-28T13:23:02.083Z,8.80
2019-03-28T13:25:33.236Z,13.55
2019-03-28T13:28:03.461Z,13.35
2019-03-28T13:30:33.545Z,12.98
2019-03-28T13:33:03.769Z,13.50
2019-03-28T13:35:35.201Z,14.75
2019-03-28T13:38:05.710Z,12.58
2019-03-28T13:40:35.857Z,13.72
2019-03-28T13:43:06.090Z,11.28
2019-03-28T13:45:36.235Z,11.33
2019-03-28T13:48:06.399Z,11.20
2019-03-28T13:50:36.626Z,10.43
2019-03-28T13:53:06.792Z,12.35
2019-03-28T13:55:37.018Z,12.80
2019-03-28T13:58:07.117Z,11.30
2019-03-28T14:00:37.279Z,11.15
2019-03-28T14:03:07.498Z,11.05
2019-03-28T14:05:37.672Z,11.35
2019-03-28T14:08:07.887Z,11.85
2019-03-28T14:10:38.945Z,9.48
2019-03-28T14:13:09.246Z,11.35
2019-03-28T14:15:39.395Z,11.80
2019-03-28T14:18:09.540Z,9.33
2019-03-28T14:20:39.702Z,11.30
2019-03-28T14:23:09.768Z,9.90
2019-03-28T14:25:39.896Z,10.50
2019-03-28T14:28:10.102Z,11.68
2019-03-28T14:30:41.019Z,11.73
2019-03-28T14:33:15.413Z,10.58
2019-03-28T14:35:44.065Z,9.00
2019-03-28T14:38:14.207Z,10.35
2019-03-28T14:40:44.299Z,10.75
2019-03-28T14:43:15.451Z,9.25
2019-03-28T14:45:45.620Z,9.78
2019-03-28T14:48:15.848Z,9.70
2019-03-28T14:50:46.171Z,9.70
2019-03-28T14:53:16.350Z,10.30
2019-03-28T14:55:46.695Z,13.13
2019-03-28T14:58:16.857Z,9.23
2019-03-28T15:00:48.678Z,11.45
2019-03-28T15:03:26.440Z,10.20
2019-03-28T15:05:50.621Z,10.25
2019-03-28T15:08:23.970Z,13.43
2019-03-28T15:10:54.053Z,11.73
2019-03-28T15:13:24.203Z,9.50
2019-03-28T15:15:54.351Z,12.10
2019-03-28T15:18:24.501Z,10.78
2019-03-28T15:20:54.833Z,12.70
2019-03-28T15:23:24.984Z,13.53
2019-03-28T15:25:55.208Z,12.03
2019-03-28T15:28:25.360Z,10.60
2019-03-28T15:30:55.783Z,10.85
2019-03-28T15:33:38.621Z,11.80
2019-03-28T15:35:57.844Z,10.80
2019-03-28T15:38:31.165Z,13.70
2019-03-28T15:40:59.692Z,9.80
2019-03-28T15:43:29.794Z,11.70
2019-03-28T15:46:01.413Z,15.88
2019-03-28T15:48:31.582Z,11.90
2019-03-28T15:51:01.806Z,12.65
2019-03-28T15:53:31.893Z,11.25
2019-03-28T15:56:02.035Z,12.20
2019-03-28T15:58:32.286Z,11.85
2019-03-28T16:01:02.348Z,13.30
2019-03-28T16:03:32.440Z,17.30
2019-03-28T16:06:02.511Z,12.37
2019-03-28T16:08:32.596Z,15.18
2019-03-28T16:11:02.666Z,16.52
2019-03-28T16:13:32.854Z,12.70
2019-03-28T16:16:03.073Z,13.03
2019-03-28T16:18:33.227Z,13.70
2019-03-28T16:21:03.396Z,13.25
2019-03-28T16:23:33.643Z,12.85
2019-03-28T16:26:03.799Z,13.98
2019-03-28T16:28:33.869Z,12.45
2019-03-28T16:31:04.026Z,13.72
2019-03-28T16:33:34.166Z,13.38
2019-03-28T16:36:04.353Z,16.55
2019-03-28T16:38:34.569Z,12.85
2019-03-28T16:41:04.730Z,12.63
2019-03-28T16:43:34.880Z,12.45
2019-03-28T16:46:07.801Z,13.13
2019-03-28T16:48:48.847Z,18.07
2019-03-28T16:51:25.932Z,12.18
2019-03-28T16:53:56.686Z,14.67
2019-03-28T16:56:32.333Z,13.40
2019-03-28T16:59:04.658Z,13.48
2019-03-28T17:01:34.911Z,13.00
2019-03-28T17:04:05.111Z,14.35
2019-03-28T17:06:35.369Z,19.87
2019-03-28T17:09:07.502Z,15.05
2019-03-28T17:11:37.708Z,13.72
2019-03-28T17:14:07.874Z,19.75
2019-03-28T17:16:37.953Z,15.83
2019-03-28T17:19:08.117Z,23.57
2019-03-28T17:21:38.329Z,15.32
2019-03-28T17:24:08.492Z,18.35
2019-03-28T17:26:38.691Z,17.82
2019-03-28T17:29:08.826Z,19.20
2019-03-28T17:31:38.937Z,17.70
2019-03-28T17:34:09.179Z,14.10
2019-03-28T17:36:39.387Z,18.40
2019-03-28T17:39:09.574Z,19.40
2019-03-28T17:41:39.738Z,21.10
2019-03-28T17:44:09.814Z,23.70
2019-03-28T17:46:39.918Z,24.57
2019-03-28T17:49:10.137Z,29.12
2019-03-28T17:51:41.305Z,23.57
2019-03-28T17:54:11.979Z,21.80
2019-03-28T17:56:42.396Z,22.30
2019-03-28T17:59:12.616Z,20.05
2019-03-28T18:01:42.769Z,21.75
2019-03-28T18:04:22.901Z,20.70
2019-03-28T18:06:45.800Z,19.87
2019-03-28T18:09:17.213Z,19.75
2019-03-28T18:11:47.803Z,21.85
2019-03-28T18:14:18.261Z,22.13
2019-03-28T18:16:48.553Z,21.97
2019-03-28T18:19:18.767Z,18.67
2019-03-28T18:22:02.433Z,23.45
2019-03-28T18:24:20.714Z,20.48
2019-03-28T18:26:51.759Z,25.95
2019-03-28T18:29:22.202Z,18.27
2019-03-28T18:31:52.737Z,19.27
2019-03-28T18:34:23.238Z,28.17
2019-03-28T18:36:53.404Z,28.20
2019-03-28T18:39:23.565Z,20.92
2019-03-28T18:41:56.465Z,22.58
2019-03-28T18:44:25.491Z,20.10
2019-03-28T18:46:55.498Z,17.92
2019-03-28T18:49:25.807Z,19.73
2019-03-28T18:51:55.946Z,19.57
2019-03-28T18:54:26.037Z,20.32
2019-03-28T18:56:56.171Z,26.00
2019-03-28T18:59:26.193Z,27.05
2019-03-28T19:01:56.339Z,27.35
2019-03-28T19:04:26.540Z,30.62
2019-03-28T19:06:57.900Z,25.32
2019-03-28T19:09:28.186Z,24.75
2019-03-28T19:11:58.302Z,28.02
2019-03-28T19:14:28.410Z,26.12
2019-03-28T19:16:58.631Z,25.02
2019-03-28T19:19:39.271Z,21.02
2019-03-28T19:22:00.547Z,26.48
2019-03-28T19:24:30.769Z,20.77
2019-03-28T19:27:01.100Z,31.40
2019-03-28T19:29:31.296Z,28.15
2019-03-28T19:32:01.430Z,25.12
2019-03-28T19:34:32.672Z,29.25
2019-03-28T19:37:03.248Z,30.10
2019-03-28T19:39:34.354Z,23.87
2019-03-28T19:42:04.936Z,27.20
2019-03-28T19:44:36.601Z,27.37
2019-03-28T19:47:06.712Z,33.55
2019-03-28T19:49:36.919Z,33.10
2019-03-28T19:52:07.136Z,25.90
2019-03-28T19:54:37.287Z,26.30
2019-03-28T19:57:07.370Z,23.98
2019-03-28T19:59:37.635Z,30.55
2019-03-28T20:02:08.042Z,26.57
2019-03-28T20:04:39.381Z,29.50
2019-03-28T20:07:20.890Z,25.30
2019-03-28T20:09:41.313Z,29.60
2019-03-28T20:12:11.492Z,30.80
2019-03-28T20:14:41.802Z,28.70
2019-03-28T20:17:11.953Z,28.45
2019-03-28T20:19:42.110Z,30.23
2019-03-28T20:22:12.330Z,29.92
2019-03-28T20:24:42.559Z,27.50
2019-03-28T20:27:14.161Z,35.70
2019-03-28T20:29:44.393Z,33.45
2019-03-28T20:32:14.615Z,27.25
2019-03-28T20:34:44.808Z,31.65
2019-03-28T20:37:15.017Z,31.70
2019-03-28T20:39:45.303Z,37.90
2019-03-28T20:42:15.381Z,29.70
2019-03-28T20:44:45.605Z,28.02
2019-03-28T20:47:15.833Z,30.80
2019-03-28T20:49:46.782Z,29.10
2019-03-28T20:52:17.273Z,28.42
2019-03-28T20:54:47.418Z,39.53
2019-03-28T20:57:17.572Z,33.38
2019-03-28T20:59:47.726Z,30.25
2019-03-28T21:02:17.884Z,36.90
2019-03-28T21:04:48.012Z,36.10
2019-03-28T21:07:20.354Z,33.30
2019-03-28T21:09:50.668Z,28.80
2019-03-28T21:12:20.757Z,32.60
2019-03-28T21:14:50.832Z,30.17
2019-03-28T21:17:21.067Z,32.15
2019-03-28T21:19:51.208Z,27.27
2019-03-28T21:22:21.373Z,31.37
2019-03-28T21:24:51.534Z,28.38
2019-03-28T21:27:21.696Z,30.23
2019-03-28T21:29:51.839Z,35.95
2019-03-28T21:32:22.088Z,28.00
2019-03-28T21:34:52.197Z,28.20
2019-03-28T21:37:22.295Z,27.95
2019-03-28T21:39:52.378Z,31.00
2019-03-28T21:42:22.448Z,27.35
2019-03-28T21:44:52.605Z,27.40
2019-03-28T21:47:22.744Z,34.27
2019-03-28T21:49:52.898Z,29.20
2019-03-28T21:52:23.044Z,27.65
2019-03-28T21:54:53.206Z,29.23
2019-03-28T21:57:23.488Z,32.65
2019-03-28T21:59:53.654Z,28.07
2019-03-28T22:02:24.759Z,31.27
2019-03-28T22:04:54.998Z,28.00
2019-03-28T22:07:25.211Z,29.12
2019-03-28T22:09:55.314Z,27.20
2019-03-28T22:12:25.461Z,27.55
2019-03-28T22:14:55.691Z,30.60
2019-03-28T22:17:27.161Z,33.63
2019-03-28T22:19:57.454Z,30.82
2019-03-28T22:22:28.199Z,25.45
2019-03-28T22:24:58.959Z,25.85
2019-03-28T22:27:29.035Z,25.52
2019-03-28T22:29:59.178Z,24.70
2019-03-28T22:32:29.336Z,30.35
2019-03-28T22:34:59.916Z,29.85
2019-03-28T22:37:30.253Z,27.30
2019-03-28T22:40:00.537Z,23.22
2019-03-28T22:42:30.781Z,22.40
2019-03-28T22:45:00.861Z,22.75
2019-03-28T22:47:34.830Z,24.18
2019-03-28T22:50:04.422Z,22.95
2019-03-28T22:52:34.582Z,24.05
2019-03-28T22:55:07.661Z,21.00
2019-03-28T22:57:37.824Z,28.27
2019-03-28T23:00:12.653Z,27.48
2019-03-28T23:02:44.319Z,23.43
2019-03-28T23:05:14.877Z,20.00
2019-03-28T23:07:45.035Z,16.97
2019-03-28T23:10:16.956Z,23.98
2019-03-28T23:12:47.412Z,20.48
2019-03-28T23:15:17.665Z,19.48
2019-03-28T23:17:47.752Z,21.42
2019-03-28T23:20:17.910Z,22.10
2019-03-28T23:22:48.000Z,20.75
2019-03-28T23:25:18.226Z,29.85
2019-03-28T23:27:48.377Z,20.55
2019-03-28T23:30:18.529Z,24.82
2019-03-28T23:32:48.757Z,24.60
2019-03-28T23:35:18.820Z,22.05
2019-03-28T23:37:48.972Z,21.50
2019-03-28T23:40:19.115Z,23.35
2019-03-28T23:42:49.278Z,21.33
2019-03-28T23:45:19.794Z,19.85
2019-03-28T23:47:50.137Z,20.55
2019-03-28T23:50:20.214Z,22.40
2019-03-28T23:52:50.373Z,20.57
2019-03-28T23:55:20.602Z,22.65
2019-03-28T23:57:50.814Z,18.75
